Terminal Aerodrome Forecast
Issued by NWS

Home | Current Version | Previous Version | Graphics & Text | Print | Product List | Glossary On
Versions: 1 2 3 4 5 6 7 8 9 10 11 12 13 14 15 16 17 18 19 20 21 22 23 24 25 26 27 28 29 30 31 32 33 34 35
682
FTUS43 KLOT 282058 AAA
TAFMDW
TAF AMD
KMDW 282058Z 2821/2918 03008KT 6SM -TSRA SCT030CB BKN060
      TEMPO 2821/2823 VRB15G25KT 2SM -TSRA BKN040CB
     FM290100 03009KT P6SM SCT030 BKN050
     FM290900 03003KT 5SM BR VCSH BKN025 OVC080
     FM291500 06007KT 6SM -SHRA BR SCT025 OVC050=

USA.gov is the U.S. government's official web portal to all federal, state and local government web resources and services.